Time;durP1;ratioP1;P1;durP2;ratioP2;P2;SDS_P1;SDS_P2;PMS_P1;PMS_P2;Temp;Humidity;BMP_temperature;BMP_pressure;BME280_temperature;BME280_humidity;BME280_pressure;Samples;Min_cycle;Max_cycle;Signal;HPM_P1;HPM_P2
2022/07/23 00:00:23;;;;;;;10.30;6.70;;;;;;;;;;103163;1317;22558;-26
2022/07/23 00:02:52;;;;;;;20.20;9.20;;;;;;;;;;103099;1320;25359;-31
2022/07/23 00:05:21;;;;;;;7.70;6.90;;;;;;;;;;103281;1320;22699;-29
2022/07/23 00:07:50;;;;;;;12.40;6.70;;;;;;;;;;103188;1320;22559;-27
2022/07/23 00:10:18;;;;;;;14.30;7.30;;;;;;;;;;103309;1313;22676;-27
2022/07/23 00:12:47;;;;;;;9.50;6.20;;;;;;;;;;103092;1320;22859;-25
2022/07/23 00:15:16;;;;;;;13.00;7.60;;;;;;;;;;103159;1320;22558;-25
2022/07/23 00:17:45;;;;;;;9.60;8.70;;;;;;;;;;103154;1322;22558;-31
2022/07/23 00:20:14;;;;;;;13.40;9.90;;;;;;;;;;103327;1314;22676;-28
2022/07/23 00:22:46;;;;;;;8.10;7.40;;;;;;;;;;103248;1323;22597;-30
2022/07/23 00:25:15;;;;;;;9.00;8.20;;;;;;;;;;103248;1324;22543;-31
2022/07/23 00:27:43;;;;;;;6.50;5.80;;;;;;;;;;103160;1321;22829;-24
2022/07/23 00:30:13;;;;;;;10.60;7.80;;;;;;;;;;103196;1320;23316;-27
2022/07/23 00:32:45;;;;;;;10.60;8.90;;;;;;;;;;103159;1323;22719;-28
2022/07/23 00:35:14;;;;;;;10.00;8.60;;;;;;;;;;103142;1320;22723;-24
2022/07/23 00:37:43;;;;;;;11.40;9.10;;;;;;;;;;103129;1326;22551;-29
2022/07/23 00:40:11;;;;;;;9.10;6.90;;;;;;;;;;103349;1315;22573;-25
2022/07/23 00:42:40;;;;;;;9.00;7.40;;;;;;;;;;103167;1323;22729;-25
2022/07/23 00:45:09;;;;;;;9.20;8.20;;;;;;;;;;103020;1313;22816;-28
2022/07/23 00:47:38;;;;;;;9.60;7.80;;;;;;;;;;102436;1320;1003637;-30
2022/07/23 00:50:08;;;;;;;8.70;7.80;;;;;;;;;;103271;1313;22858;-26
2022/07/23 00:52:37;;;;;;;19.40;14.20;;;;;;;;;;103144;1320;22551;-26
2022/07/23 00:55:07;;;;;;;11.70;10.20;;;;;;;;;;103216;1320;22905;-29
2022/07/23 00:57:36;;;;;;;8.50;7.50;;;;;;;;;;103097;1326;23016;-28
2022/07/23 01:00:06;;;;;;;11.90;8.80;;;;;;;;;;103125;1314;22740;-28
2022/07/23 01:02:35;;;;;;;14.30;10.60;;;;;;;;;;103275;1320;22737;-29
2022/07/23 01:05:04;;;;;;;14.40;12.70;;;;;;;;;;103096;1320;22943;-26
2022/07/23 01:07:32;;;;;;;24.10;12.30;;;;;;;;;;103131;1323;22722;-28
2022/07/23 01:10:01;;;;;;;16.40;11.00;;;;;;;;;;103200;1314;22544;-28
2022/07/23 01:12:30;;;;;;;14.40;12.50;;;;;;;;;;103178;1320;23056;-29
2022/07/23 01:14:59;;;;;;;12.80;11.30;;;;;;;;;;103167;1320;22722;-27
2022/07/23 01:17:28;;;;;;;21.10;13.40;;;;;;;;;;103159;1314;22860;-28
2022/07/23 01:19:57;;;;;;;28.00;11.60;;;;;;;;;;103236;1328;22540;-30
2022/07/23 01:22:28;;;;;;;22.90;12.80;;;;;;;;;;103155;1313;22729;-25
2022/07/23 01:24:57;;;;;;;21.50;13.70;;;;;;;;;;103126;1320;22771;-25
2022/07/23 01:27:26;;;;;;;27.70;22.10;;;;;;;;;;103296;1314;22688;-24
2022/07/23 01:29:55;;;;;;;40.70;30.10;;;;;;;;;;103281;1320;22564;-28
2022/07/23 01:32:23;;;;;;;25.30;13.30;;;;;;;;;;103188;1320;22841;-30
2022/07/23 01:34:52;;;;;;;18.20;11.70;;;;;;;;;;103337;1320;22866;-29
2022/07/23 01:37:21;;;;;;;17.50;14.60;;;;;;;;;;103052;1313;22564;-29
2022/07/23 01:39:50;;;;;;;18.50;16.30;;;;;;;;;;103210;1314;22819;-25
2022/07/23 01:42:19;;;;;;;32.40;15.90;;;;;;;;;;103136;1313;22736;-26
2022/07/23 01:44:47;;;;;;;18.90;14.90;;;;;;;;;;103349;1320;22626;-26
2022/07/23 01:47:16;;;;;;;17.00;14.00;;;;;;;;;;103149;1327;22937;-30
2022/07/23 01:49:45;;;;;;;18.40;15.40;;;;;;;;;;103081;1326;22723;-28
2022/07/23 01:52:14;;;;;;;28.60;15.80;;;;;;;;;;103077;1321;22885;-25
2022/07/23 01:54:43;;;;;;;25.30;13.50;;;;;;;;;;103150;1326;23041;-29
2022/07/23 01:57:13;;;;;;;23.10;14.60;;;;;;;;;;103225;1314;22872;-28
2022/07/23 01:59:42;;;;;;;22.50;16.40;;;;;;;;;;103184;1326;22559;-29
2022/07/23 02:02:11;;;;;;;25.70;17.30;;;;;;;;;;103176;1314;22606;-25
2022/07/23 02:04:40;;;;;;;20.10;15.70;;;;;;;;;;103174;1323;22860;-28
2022/07/23 02:07:08;;;;;;;21.70;15.70;;;;;;;;;;103115;1318;22849;-28
2022/07/23 02:09:37;;;;;;;29.10;18.40;;;;;;;;;;103173;1321;22865;-24
2022/07/23 02:12:06;;;;;;;35.40;23.50;;;;;;;;;;103233;1320;22567;-29
2022/07/23 02:14:35;;;;;;;46.90;27.30;;;;;;;;;;103381;1326;22864;-24
2022/07/23 02:17:04;;;;;;;42.40;26.80;;;;;;;;;;103195;1314;22694;-25
2022/07/23 02:19:33;;;;;;;32.70;24.90;;;;;;;;;;103132;1320;22672;-28
2022/07/23 02:22:01;;;;;;;57.90;35.10;;;;;;;;;;103217;1314;22883;-28
2022/07/23 02:24:30;;;;;;;39.00;27.90;;;;;;;;;;103123;1314;22587;-28
2022/07/23 02:26:59;;;;;;;30.50;24.80;;;;;;;;;;103352;1326;22560;-24
2022/07/23 02:29:28;;;;;;;33.80;18.80;;;;;;;;;;103176;1314;22630;-29
2022/07/23 02:31:57;;;;;;;21.20;18.90;;;;;;;;;;103203;1320;23034;-28
2022/07/23 02:34:25;;;;;;;22.20;16.60;;;;;;;;;;103240;1320;22551;-26
2022/07/23 02:36:54;;;;;;;22.70;15.20;;;;;;;;;;103165;1318;22554;-27
2022/07/23 02:39:23;;;;;;;26.30;21.40;;;;;;;;;;103249;1326;22800;-27
2022/07/23 02:41:51;;;;;;;32.60;21.20;;;;;;;;;;103130;1320;22596;-24
2022/07/23 02:44:20;;;;;;;21.20;15.90;;;;;;;;;;103226;1320;22731;-30
2022/07/23 02:46:49;;;;;;;35.40;18.30;;;;;;;;;;103211;1315;22565;-28
2022/07/23 02:49:18;;;;;;;20.70;14.10;;;;;;;;;;103127;1320;22680;-24
2022/07/23 02:51:46;;;;;;;16.50;11.70;;;;;;;;;;103089;1314;22549;-27
2022/07/23 02:54:15;;;;;;;22.90;13.60;;;;;;;;;;103158;1320;22824;-28
2022/07/23 02:56:44;;;;;;;20.70;17.30;;;;;;;;;;103165;1320;22711;-24
2022/07/23 02:59:13;;;;;;;31.30;14.90;;;;;;;;;;103145;1325;22565;-28
2022/07/23 03:01:42;;;;;;;16.80;14.70;;;;;;;;;;103314;1326;22717;-25
2022/07/23 03:04:11;;;;;;;20.70;14.80;;;;;;;;;;103109;1326;22575;-24
2022/07/23 03:06:40;;;;;;;17.10;11.00;;;;;;;;;;103304;1320;22546;-23
2022/07/23 03:09:09;;;;;;;9.80;7.70;;;;;;;;;;103181;1325;23018;-28
2022/07/23 03:11:38;;;;;;;21.60;11.70;;;;;;;;;;103143;1314;22717;-27
2022/07/23 03:14:07;;;;;;;17.10;14.10;;;;;;;;;;103157;1324;22559;-25
2022/07/23 03:16:36;;;;;;;24.80;16.10;;;;;;;;;;103095;1312;22562;-25
2022/07/23 03:19:05;;;;;;;20.90;11.50;;;;;;;;;;103266;1323;22554;-30
2022/07/23 03:21:34;;;;;;;27.50;15.20;;;;;;;;;;103169;1320;22595;-30
2022/07/23 03:24:03;;;;;;;14.10;10.30;;;;;;;;;;103245;1326;22723;-26
2022/07/23 03:26:31;;;;;;;19.80;14.40;;;;;;;;;;103225;1314;22717;-25
2022/07/23 03:29:01;;;;;;;13.20;10.60;;;;;;;;;;103125;1320;22810;-28
2022/07/23 03:31:31;;;;;;;17.90;14.40;;;;;;;;;;103190;1320;22552;-27
2022/07/23 03:33:59;;;;;;;16.80;12.40;;;;;;;;;;103186;1320;22565;-25
2022/07/23 03:36:28;;;;;;;14.50;12.60;;;;;;;;;;103163;1314;22841;-29
2022/07/23 03:38:57;;;;;;;20.00;13.40;;;;;;;;;;103113;1326;23044;-29
2022/07/23 03:41:26;;;;;;;20.90;12.30;;;;;;;;;;103210;1315;22840;-25
2022/07/23 03:43:54;;;;;;;15.30;11.30;;;;;;;;;;103335;1326;22562;-29
2022/07/23 03:46:23;;;;;;;19.90;8.90;;;;;;;;;;103161;1320;22732;-26
2022/07/23 03:48:52;;;;;;;12.40;9.90;;;;;;;;;;103264;1328;22569;-26
2022/07/23 03:51:21;;;;;;;17.80;11.30;;;;;;;;;;103060;1323;22546;-29
2022/07/23 03:53:49;;;;;;;9.60;8.50;;;;;;;;;;103129;1320;22565;-28
2022/07/23 03:56:18;;;;;;;20.50;12.60;;;;;;;;;;103149;1326;22710;-29
2022/07/23 03:58:47;;;;;;;10.40;9.20;;;;;;;;;;103099;1320;22562;-29
2022/07/23 04:01:16;;;;;;;14.00;9.80;;;;;;;;;;103079;1320;22720;-25
2022/07/23 04:03:46;;;;;;;30.90;12.10;;;;;;;;;;102796;1323;596717;-25
2022/07/23 04:06:15;;;;;;;23.80;11.80;;;;;;;;;;103077;1326;24253;-25
2022/07/23 04:08:43;;;;;;;8.60;7.70;;;;;;;;;;103095;1320;22565;-31
2022/07/23 04:11:12;;;;;;;15.60;10.80;;;;;;;;;;103150;1326;22558;-27
2022/07/23 04:13:41;;;;;;;13.20;10.40;;;;;;;;;;103259;1327;22600;-26
2022/07/23 04:16:10;;;;;;;16.30;12.40;;;;;;;;;;103119;1315;22548;-25
2022/07/23 04:18:38;;;;;;;11.20;7.10;;;;;;;;;;103291;1320;23051;-24
2022/07/23 04:21:07;;;;;;;12.50;11.10;;;;;;;;;;103258;1328;22551;-28
2022/07/23 04:23:36;;;;;;;13.30;10.80;;;;;;;;;;103068;1326;22712;-29
2022/07/23 04:26:05;;;;;;;22.70;14.70;;;;;;;;;;103060;1320;22558;-27
2022/07/23 04:28:34;;;;;;;13.50;11.70;;;;;;;;;;103261;1314;22571;-28
2022/07/23 04:31:02;;;;;;;11.90;10.20;;;;;;;;;;103117;1320;22860;-26
2022/07/23 04:33:31;;;;;;;12.00;10.80;;;;;;;;;;103162;1326;22561;-29
2022/07/23 04:36:00;;;;;;;12.40;10.60;;;;;;;;;;103045;1320;22549;-25
2022/07/23 04:38:29;;;;;;;20.40;12.60;;;;;;;;;;103237;1320;22674;-25
2022/07/23 04:40:58;;;;;;;9.40;8.40;;;;;;;;;;103207;1320;22994;-24
2022/07/23 04:43:27;;;;;;;13.50;9.70;;;;;;;;;;103126;1320;22848;-28
2022/07/23 04:45:55;;;;;;;12.70;10.80;;;;;;;;;;103154;1326;22570;-28
2022/07/23 04:48:24;;;;;;;12.10;9.90;;;;;;;;;;103157;1321;22863;-27
2022/07/23 04:50:53;;;;;;;17.70;12.70;;;;;;;;;;103282;1315;22684;-26
2022/07/23 04:53:22;;;;;;;11.70;9.00;;;;;;;;;;103162;1326;22666;-26
2022/07/23 04:55:51;;;;;;;15.80;9.20;;;;;;;;;;103144;1320;22865;-24
2022/07/23 04:58:20;;;;;;;16.60;9.40;;;;;;;;;;103213;1328;22721;-25
2022/07/23 05:00:49;;;;;;;21.20;10.60;;;;;;;;;;103108;1318;22580;-31
2022/07/23 05:03:18;;;;;;;13.90;8.40;;;;;;;;;;103098;1326;22562;-27
2022/07/23 05:05:46;;;;;;;11.10;10.00;;;;;;;;;;103034;1321;22716;-31
2022/07/23 05:08:15;;;;;;;9.60;7.40;;;;;;;;;;103112;1326;22829;-25
2022/07/23 05:10:44;;;;;;;13.50;9.40;;;;;;;;;;103111;1320;22565;-26
2022/07/23 05:13:14;;;;;;;16.90;10.50;;;;;;;;;;103144;1326;22719;-24
2022/07/23 05:15:43;;;;;;;10.60;8.30;;;;;;;;;;103104;1319;22969;-28
2022/07/23 05:18:12;;;;;;;10.60;8.70;;;;;;;;;;103114;1326;22613;-25
2022/07/23 05:20:41;;;;;;;16.70;10.20;;;;;;;;;;103296;1320;22857;-28
2022/07/23 05:23:10;;;;;;;16.50;11.70;;;;;;;;;;103105;1320;22575;-27
2022/07/23 05:25:39;;;;;;;11.70;9.20;;;;;;;;;;103176;1314;22964;-31
2022/07/23 05:28:08;;;;;;;9.90;8.90;;;;;;;;;;103178;1320;22565;-29
2022/07/23 05:30:37;;;;;;;11.20;8.60;;;;;;;;;;103285;1315;22965;-25
2022/07/23 05:33:07;;;;;;;14.00;8.00;;;;;;;;;;103113;1322;22961;-30
2022/07/23 05:35:36;;;;;;;9.80;7.90;;;;;;;;;;103076;1320;22565;-24
2022/07/23 05:38:05;;;;;;;9.30;8.40;;;;;;;;;;103244;1326;22716;-25
2022/07/23 05:40:33;;;;;;;9.80;8.90;;;;;;;;;;103133;1320;22712;-25
2022/07/23 05:43:02;;;;;;;9.50;7.10;;;;;;;;;;103169;1320;22718;-29
2022/07/23 05:45:31;;;;;;;12.90;8.50;;;;;;;;;;103237;1323;22721;-29
2022/07/23 05:48:00;;;;;;;8.90;7.30;;;;;;;;;;103205;1326;22562;-29
2022/07/23 05:50:29;;;;;;;11.70;8.20;;;;;;;;;;103179;1323;22568;-26
2022/07/23 05:52:57;;;;;;;8.70;7.30;;;;;;;;;;103113;1326;22827;-30
2022/07/23 05:55:28;;;;;;;9.10;7.00;;;;;;;;;;103102;1313;22717;-25
2022/07/23 05:58:06;;;;;;;14.70;8.60;;;;;;;;;;103090;1320;22704;-26
2022/07/23 06:00:43;;;;;;;8.70;7.50;;;;;;;;;;103108;1315;22932;-29
2022/07/23 06:03:20;;;;;;;8.50;7.00;;;;;;;;;;103186;1313;22663;-26
2022/07/23 06:05:49;;;;;;;10.00;7.50;;;;;;;;;;103145;1314;22572;-29
2022/07/23 06:08:18;;;;;;;6.90;6.20;;;;;;;;;;103146;1323;22584;-29
2022/07/23 06:10:47;;;;;;;9.80;6.80;;;;;;;;;;103230;1326;22569;-25
2022/07/23 06:13:17;;;;;;;15.10;7.00;;;;;;;;;;103107;1323;23063;-28
2022/07/23 06:15:46;;;;;;;8.30;5.40;;;;;;;;;;103115;1317;22555;-25
2022/07/23 06:18:15;;;;;;;11.80;7.30;;;;;;;;;;103278;1326;22870;-25
2022/07/23 06:20:43;;;;;;;13.50;7.40;;;;;;;;;;103243;1313;22959;-25
2022/07/23 06:23:12;;;;;;;7.80;6.60;;;;;;;;;;103196;1326;22585;-29
2022/07/23 06:25:41;;;;;;;12.40;6.30;;;;;;;;;;103276;1313;22555;-29
2022/07/23 06:28:10;;;;;;;10.10;6.50;;;;;;;;;;103093;1314;22562;-25
2022/07/23 06:30:39;;;;;;;8.20;6.10;;;;;;;;;;103191;1313;22723;-25
2022/07/23 06:33:07;;;;;;;8.30;7.10;;;;;;;;;;103208;1321;22578;-25
2022/07/23 06:35:36;;;;;;;5.90;5.50;;;;;;;;;;103271;1320;22586;-28
2022/07/23 06:38:05;;;;;;;6.20;4.70;;;;;;;;;;103141;1326;22555;-28
2022/07/23 06:40:34;;;;;;;11.10;4.30;;;;;;;;;;103169;1320;22474;-27
2022/07/23 06:43:03;;;;;;;9.10;6.20;;;;;;;;;;103124;1323;23015;-24
2022/07/23 06:45:32;;;;;;;8.50;5.80;;;;;;;;;;103137;1320;22566;-30
2022/07/23 06:48:02;;;;;;;9.80;5.50;;;;;;;;;;103230;1320;22716;-25
2022/07/23 06:50:31;;;;;;;7.00;5.90;;;;;;;;;;103118;1320;22585;-31
2022/07/23 06:52:59;;;;;;;5.40;4.90;;;;;;;;;;103216;1327;22989;-29
2022/07/23 06:55:28;;;;;;;5.60;5.00;;;;;;;;;;103062;1313;22716;-25
2022/07/23 06:57:57;;;;;;;9.00;5.40;;;;;;;;;;103086;1320;22567;-29
2022/07/23 07:00:26;;;;;;;10.50;6.40;;;;;;;;;;103116;1313;22644;-29
2022/07/23 07:02:55;;;;;;;12.20;5.40;;;;;;;;;;103123;1326;22828;-31
2022/07/23 07:05:27;;;;;;;11.70;4.50;;;;;;;;;;103174;1315;22587;-29
2022/07/23 07:07:55;;;;;;;5.40;4.50;;;;;;;;;;103154;1320;22681;-29
2022/07/23 07:10:24;;;;;;;6.00;4.10;;;;;;;;;;103058;1314;22560;-29
2022/07/23 07:12:53;;;;;;;5.70;4.30;;;;;;;;;;103266;1326;22597;-29
2022/07/23 07:15:22;;;;;;;9.00;6.40;;;;;;;;;;103034;1323;22560;-26
2022/07/23 07:17:51;;;;;;;4.70;4.40;;;;;;;;;;103193;1320;22598;-26
2022/07/23 07:20:19;;;;;;;8.30;4.50;;;;;;;;;;103191;1323;23024;-30
2022/07/23 07:22:49;;;;;;;5.30;3.30;;;;;;;;;;103085;1328;22571;-26
2022/07/23 07:25:18;;;;;;;5.60;5.10;;;;;;;;;;103046;1320;22562;-26
2022/07/23 07:27:47;;;;;;;4.20;3.70;;;;;;;;;;103161;1320;22694;-30
2022/07/23 07:30:15;;;;;;;9.30;5.80;;;;;;;;;;103015;1313;22660;-25
2022/07/23 07:32:44;;;;;;;6.60;4.80;;;;;;;;;;103122;1322;22668;-29
2022/07/23 07:35:13;;;;;;;4.90;4.30;;;;;;;;;;103180;1314;22535;-30
2022/07/23 07:37:42;;;;;;;6.30;5.00;;;;;;;;;;103109;1323;22555;-30
2022/07/23 07:40:10;;;;;;;4.40;3.70;;;;;;;;;;103253;1313;22555;-30
2022/07/23 07:42:43;;;;;;;5.30;4.50;;;;;;;;;;103247;1325;22462;-26
2022/07/23 07:45:11;;;;;;;;;;;;;;;;;;103219;1320;22762;-30
2022/07/23 07:47:40;;;;;;;5.80;5.40;;;;;;;;;;103129;1326;22569;-30
2022/07/23 07:50:09;;;;;;;3.70;3.40;;;;;;;;;;103130;1326;22715;-30
2022/07/23 07:52:38;;;;;;;5.70;3.80;;;;;;;;;;102423;1320;1003151;-28
2022/07/23 07:55:07;;;;;;;11.30;5.30;;;;;;;;;;103139;1314;22717;-29
2022/07/23 07:57:36;;;;;;;6.70;5.10;;;;;;;;;;103103;1320;22573;-24
2022/07/23 08:00:07;;;;;;;5.30;4.50;;;;;;;;;;103147;1314;22565;-28
2022/07/23 08:02:39;;;;;;;10.80;6.00;;;;;;;;;;103182;1325;22580;-28
2022/07/23 08:05:09;;;;;;;11.40;5.80;;;;;;;;;;103236;1320;22827;-28
2022/07/23 08:07:39;;;;;;;4.20;3.50;;;;;;;;;;103303;1314;22586;-24
2022/07/23 08:10:08;;;;;;;4.70;4.10;;;;;;;;;;103271;1315;22968;-28
2022/07/23 08:12:38;;;;;;;4.30;3.80;;;;;;;;;;103181;1320;22967;-25
2022/07/23 08:15:07;;;;;;;5.20;4.50;;;;;;;;;;103123;1320;22719;-26
2022/07/23 08:17:36;;;;;;;6.50;4.00;;;;;;;;;;103108;1315;22689;-30
2022/07/23 08:20:05;;;;;;;5.30;4.20;;;;;;;;;;103156;1314;22719;-30
2022/07/23 08:22:37;;;;;;;5.90;4.00;;;;;;;;;;103143;1320;22832;-26
2022/07/23 08:25:06;;;;;;;5.10;4.20;;;;;;;;;;103149;1321;22560;-30
2022/07/23 08:27:35;;;;;;;4.40;3.80;;;;;;;;;;103134;1326;22729;-28
2022/07/23 08:30:04;;;;;;;11.30;3.70;;;;;;;;;;102399;1317;1002961;-26
2022/07/23 08:32:33;;;;;;;10.30;4.20;;;;;;;;;;103299;1326;22565;-24
2022/07/23 08:35:02;;;;;;;4.20;3.20;;;;;;;;;;103375;1320;22555;-24
2022/07/23 08:37:31;;;;;;;3.00;2.80;;;;;;;;;;103120;1325;22721;-28
2022/07/23 08:40:00;;;;;;;4.10;2.90;;;;;;;;;;103151;1314;22540;-24
2022/07/23 08:42:29;;;;;;;8.00;3.10;;;;;;;;;;103343;1323;22561;-28
2022/07/23 08:44:58;;;;;;;3.80;3.40;;;;;;;;;;103137;1320;22552;-24
2022/07/23 08:47:27;;;;;;;10.00;4.20;;;;;;;;;;103146;1321;22549;-25
2022/07/23 08:49:56;;;;;;;4.80;4.30;;;;;;;;;;103162;1323;22566;-28
2022/07/23 08:52:25;;;;;;;4.60;4.20;;;;;;;;;;103264;1323;22729;-24
2022/07/23 08:54:54;;;;;;;5.80;4.10;;;;;;;;;;103303;1313;22712;-25
2022/07/23 08:57:23;;;;;;;10.70;3.60;;;;;;;;;;103160;1314;22715;-30
2022/07/23 08:59:52;;;;;;;2.50;2.30;;;;;;;;;;103190;1313;22684;-26
2022/07/23 09:02:20;;;;;;;3.20;2.90;;;;;;;;;;103269;1314;22562;-29
2022/07/23 09:04:49;;;;;;;3.70;3.10;;;;;;;;;;103213;1313;22735;-25
2022/07/23 09:07:18;;;;;;;3.70;3.30;;;;;;;;;;103337;1323;22708;-26
2022/07/23 09:09:47;;;;;;;3.70;3.20;;;;;;;;;;103212;1322;22691;-29
2022/07/23 09:12:16;;;;;;;4.50;4.00;;;;;;;;;;103148;1320;22819;-29
2022/07/23 09:14:46;;;;;;;9.20;4.60;;;;;;;;;;103279;1323;22815;-25
2022/07/23 09:17:16;;;;;;;6.10;3.60;;;;;;;;;;103154;1322;25485;-25
2022/07/23 09:19:54;;;;;;;3.90;3.60;;;;;;;;;;103176;1326;22552;-29
2022/07/23 09:22:24;;;;;;;3.80;3.50;;;;;;;;;;103196;1320;22990;-25
2022/07/23 09:24:56;;;;;;;5.50;4.20;;;;;;;;;;103230;1320;22968;-29
2022/07/23 09:27:25;;;;;;;4.10;3.70;;;;;;;;;;103047;1323;22649;-25
2022/07/23 09:29:55;;;;;;;4.00;3.70;;;;;;;;;;103060;1323;22865;-29
2022/07/23 09:32:24;;;;;;;3.50;3.10;;;;;;;;;;103153;1316;22709;-29
2022/07/23 09:34:52;;;;;;;3.40;3.10;;;;;;;;;;103293;1313;22589;-28
2022/07/23 09:37:21;;;;;;;5.00;2.80;;;;;;;;;;103102;1313;22970;-24
2022/07/23 09:39:50;;;;;;;3.50;3.20;;;;;;;;;;103115;1322;22594;-24
2022/07/23 09:42:20;;;;;;;4.70;3.80;;;;;;;;;;103130;1313;22685;-24
2022/07/23 09:44:49;;;;;;;6.30;4.80;;;;;;;;;;103157;1314;22585;-24
2022/07/23 09:47:18;;;;;;;3.80;3.50;;;;;;;;;;103123;1314;22699;-24
2022/07/23 09:49:50;;;;;;;4.00;3.20;;;;;;;;;;103003;1327;22723;-28
2022/07/23 09:52:25;;;;;;;4.10;3.70;;;;;;;;;;103141;1320;22735;-24
2022/07/23 09:54:58;;;;;;;3.20;3.00;;;;;;;;;;103159;1320;22554;-26
2022/07/23 09:57:27;;;;;;;3.60;3.20;;;;;;;;;;103115;1320;22692;-30
2022/07/23 09:59:57;;;;;;;5.20;3.40;;;;;;;;;;103252;1320;22826;-30
2022/07/23 10:02:27;;;;;;;3.40;3.20;;;;;;;;;;103189;1320;22854;-28
2022/07/23 10:04:56;;;;;;;3.00;2.60;;;;;;;;;;103148;1314;22750;-25
2022/07/23 10:07:26;;;;;;;7.40;3.10;;;;;;;;;;103281;1323;22611;-29
2022/07/23 10:09:55;;;;;;;5.70;3.20;;;;;;;;;;103212;1320;25341;-28
2022/07/23 10:15:13;;;;;;;2.90;2.60;;;;;;;;;;103124;1314;22723;-25
2022/07/23 10:17:42;;;;;;;1.70;1.20;;;;;;;;;;103152;1326;22990;-25
2022/07/23 10:20:11;;;;;;;4.10;3.10;;;;;;;;;;103222;1314;22579;-29
2022/07/23 10:22:40;;;;;;;5.90;2.80;;;;;;;;;;103095;1323;22685;-25
2022/07/23 10:25:21;;;;;;;6.00;2.70;;;;;;;;;;103050;1328;22706;-25
2022/07/23 10:28:02;;;;;;;4.30;2.70;;;;;;;;;;103287;1320;24406;-25
2022/07/23 10:30:31;;;;;;;4.90;3.60;;;;;;;;;;103139;1323;22649;-25
2022/07/23 10:33:20;;;;;;;6.40;2.50;;;;;;;;;;103184;1320;22620;-29
2022/07/23 10:35:54;;;;;;;3.70;2.70;;;;;;;;;;103148;1320;22736;-29
2022/07/23 10:38:25;;;;;;;4.30;3.00;;;;;;;;;;103060;1323;22643;-29
2022/07/23 10:40:55;;;;;;;3.20;2.60;;;;;;;;;;103151;1320;24690;-29
2022/07/23 10:43:24;;;;;;;7.10;3.80;;;;;;;;;;103235;1320;22601;-25
2022/07/23 10:45:53;;;;;;;3.10;2.50;;;;;;;;;;103058;1313;22571;-25
2022/07/23 10:48:23;;;;;;;3.60;3.20;;;;;;;;;;103167;1320;22724;-28
2022/07/23 10:50:56;;;;;;;3.80;2.80;;;;;;;;;;103104;1314;22590;-27
2022/07/23 10:53:24;;;;;;;3.60;2.30;;;;;;;;;;103234;1320;25346;-23
2022/07/23 10:55:53;;;;;;;2.80;2.60;;;;;;;;;;103155;1313;22551;-28
2022/07/23 10:58:23;;;;;;;8.00;3.10;;;;;;;;;;103150;1320;22575;-25
2022/07/23 11:01:02;;;;;;;3.30;3.00;;;;;;;;;;103085;1323;22813;-29
2022/07/23 11:03:32;;;;;;;6.00;3.40;;;;;;;;;;103323;1314;22876;-30
2022/07/23 11:06:01;;;;;;;4.50;3.60;;;;;;;;;;103095;1320;24283;-26
2022/07/23 11:08:29;;;;;;;8.00;4.10;;;;;;;;;;103137;1314;25891;-30
2022/07/23 11:11:08;;;;;;;4.90;3.70;;;;;;;;;;103194;1313;22712;-30
2022/07/23 11:13:38;;;;;;;4.10;3.00;;;;;;;;;;103216;1320;22713;-30
2022/07/23 11:16:10;;;;;;;9.70;3.30;;;;;;;;;;103174;1320;22728;-30
2022/07/23 11:18:56;;;;;;;6.90;4.10;;;;;;;;;;103104;1320;22817;-26
2022/07/23 11:21:41;;;;;;;3.80;3.40;;;;;;;;;;103080;1320;22960;-29
2022/07/23 11:24:10;;;;;;;4.60;3.90;;;;;;;;;;103310;1320;23035;-25
2022/07/23 11:26:40;;;;;;;12.80;4.10;;;;;;;;;;103145;1324;22716;-25
2022/07/23 11:29:21;;;;;;;4.20;3.80;;;;;;;;;;103079;1314;22782;-29
2022/07/23 11:31:59;;;;;;;4.30;3.80;;;;;;;;;;103097;1314;22568;-24
2022/07/23 11:34:40;;;;;;;4.20;2.80;;;;;;;;;;103111;1314;22588;-24
2022/07/23 11:37:21;;;;;;;9.80;4.30;;;;;;;;;;103258;1320;22722;-26
2022/07/23 11:39:49;;;;;;;;;;;;;;;;;;103259;1321;22539;-25
2022/07/23 11:42:18;;;;;;;5.70;3.30;;;;;;;;;;103247;1313;22573;-26
2022/07/23 11:44:48;;;;;;;6.30;4.30;;;;;;;;;;103198;1320;22828;-26
2022/07/23 11:47:21;;;;;;;9.70;4.00;;;;;;;;;;103193;1314;22551;-29
2022/07/23 11:49:51;;;;;;;9.40;4.90;;;;;;;;;;103208;1320;22724;-25
2022/07/23 11:52:21;;;;;;;6.80;4.80;;;;;;;;;;103155;1314;22559;-25
2022/07/23 11:54:51;;;;;;;6.40;4.00;;;;;;;;;;103243;1314;22568;-25
2022/07/23 11:57:21;;;;;;;3.70;3.20;;;;;;;;;;103128;1323;22684;-29
2022/07/23 11:59:51;;;;;;;4.40;3.10;;;;;;;;;;103119;1313;22565;-25
2022/07/23 12:02:20;;;;;;;4.50;3.50;;;;;;;;;;103142;1320;23030;-25
2022/07/23 12:04:50;;;;;;;5.80;3.30;;;;;;;;;;102915;1314;439527;-26
2022/07/23 12:07:22;;;;;;;2.80;1.70;;;;;;;;;;103164;1313;22574;-25
2022/07/23 12:09:51;;;;;;;21.80;3.40;;;;;;;;;;103158;1320;22573;-24
2022/07/23 12:12:20;;;;;;;7.80;3.90;;;;;;;;;;103226;1314;22576;-26
2022/07/23 12:14:50;;;;;;;16.20;4.40;;;;;;;;;;103225;1313;22858;-30
2022/07/23 12:17:19;;;;;;;10.40;6.20;;;;;;;;;;103266;1320;22851;-27
2022/07/23 12:19:48;;;;;;;4.30;3.60;;;;;;;;;;102425;1320;1003010;-25
2022/07/23 12:22:17;;;;;;;11.50;7.00;;;;;;;;;;103087;1314;22584;-25
2022/07/23 12:24:49;;;;;;;5.40;4.70;;;;;;;;;;103143;1323;22567;-25
2022/07/23 12:27:19;;;;;;;5.90;5.00;;;;;;;;;;103194;1321;22704;-27
2022/07/23 12:29:48;;;;;;;7.70;6.40;;;;;;;;;;103209;1320;22857;-30
2022/07/23 12:32:18;;;;;;;8.30;6.80;;;;;;;;;;103186;1313;22573;-30
2022/07/23 12:34:48;;;;;;;7.20;6.50;;;;;;;;;;103253;1320;23065;-27
2022/07/23 12:37:20;;;;;;;13.20;7.70;;;;;;;;;;103224;1323;22572;-29
2022/07/23 12:39:49;;;;;;;10.60;7.70;;;;;;;;;;103189;1320;22857;-25
2022/07/23 12:42:18;;;;;;;9.70;6.90;;;;;;;;;;103158;1313;23026;-29
2022/07/23 12:44:51;;;;;;;9.80;7.10;;;;;;;;;;103290;1320;22723;-25
2022/07/23 12:47:19;;;;;;;8.60;6.80;;;;;;;;;;103092;1320;22731;-25
2022/07/23 12:49:48;;;;;;;10.10;5.80;;;;;;;;;;103113;1323;22568;-31
2022/07/23 12:52:17;;;;;;;6.50;5.90;;;;;;;;;;103174;1323;23081;-26
2022/07/23 12:54:46;;;;;;;6.10;5.50;;;;;;;;;;103155;1320;22742;-29
2022/07/23 12:57:15;;;;;;;10.70;8.60;;;;;;;;;;103222;1320;23181;-30
2022/07/23 12:59:43;;;;;;;21.00;8.30;;;;;;;;;;103172;1323;22636;-32
2022/07/23 13:02:13;;;;;;;8.20;6.00;;;;;;;;;;103136;1323;22865;-32
2022/07/23 13:04:42;;;;;;;8.70;7.10;;;;;;;;;;103295;1320;22687;-30
2022/07/23 13:07:11;;;;;;;9.00;6.80;;;;;;;;;;103277;1313;22555;-30
2022/07/23 13:09:40;;;;;;;12.60;8.70;;;;;;;;;;103182;1320;22582;-25
2022/07/23 13:12:09;;;;;;;10.60;9.20;;;;;;;;;;103271;1314;22851;-25
2022/07/23 13:14:37;;;;;;;11.50;7.70;;;;;;;;;;103247;1320;22562;-30
2022/07/23 13:17:06;;;;;;;6.50;5.90;;;;;;;;;;103321;1313;22565;-31
2022/07/23 13:19:35;;;;;;;7.70;6.90;;;;;;;;;;103210;1323;22866;-25
2022/07/23 13:22:04;;;;;;;14.70;9.50;;;;;;;;;;103077;1323;22856;-24
2022/07/23 13:24:32;;;;;;;9.40;6.30;;;;;;;;;;103032;1323;23281;-25
2022/07/23 13:27:03;;;;;;;7.80;7.00;;;;;;;;;;103219;1328;22685;-26
2022/07/23 13:29:32;;;;;;;8.80;6.40;;;;;;;;;;103160;1323;22720;-30
2022/07/23 13:32:00;;;;;;;16.40;8.00;;;;;;;;;;103096;1313;22773;-32
2022/07/23 13:34:29;;;;;;;11.70;8.20;;;;;;;;;;103194;1319;22549;-26
2022/07/23 13:36:58;;;;;;;7.00;6.30;;;;;;;;;;103198;1314;22710;-29
2022/07/23 13:39:27;;;;;;;10.10;7.80;;;;;;;;;;103229;1323;22722;-29
2022/07/23 13:41:56;;;;;;;6.50;5.80;;;;;;;;;;103143;1323;22846;-25
2022/07/23 13:44:25;;;;;;;9.90;7.40;;;;;;;;;;103181;1323;22564;-25
2022/07/23 13:46:53;;;;;;;15.00;10.30;;;;;;;;;;103105;1313;22710;-26
2022/07/23 13:49:22;;;;;;;18.00;11.00;;;;;;;;;;103125;1326;22567;-28
2022/07/23 13:51:51;;;;;;;19.60;13.90;;;;;;;;;;103144;1326;22695;-32
2022/07/23 13:54:20;;;;;;;16.10;11.60;;;;;;;;;;103152;1320;23016;-26
2022/07/23 13:56:48;;;;;;;10.90;9.80;;;;;;;;;;103226;1320;22566;-30
2022/07/23 13:59:17;;;;;;;7.30;5.70;;;;;;;;;;103132;1323;23148;-30
2022/07/23 14:01:46;;;;;;;6.90;4.20;;;;;;;;;;103213;1313;22687;-25
2022/07/23 14:04:15;;;;;;;12.10;10.90;;;;;;;;;;103327;1323;22884;-26
2022/07/23 14:06:43;;;;;;;6.20;5.40;;;;;;;;;;103208;1314;22807;-30
2022/07/23 14:09:12;;;;;;;8.80;7.20;;;;;;;;;;102488;1323;1003655;-31
2022/07/23 14:11:41;;;;;;;13.40;9.80;;;;;;;;;;103229;1320;22569;-30
2022/07/23 14:14:10;;;;;;;10.10;6.90;;;;;;;;;;103301;1313;22562;-30
2022/07/23 14:16:39;;;;;;;10.40;6.30;;;;;;;;;;103114;1314;22562;-25
2022/07/23 14:19:07;;;;;;;7.30;4.70;;;;;;;;;;103111;1323;22565;-32
2022/07/23 14:21:36;;;;;;;12.30;6.10;;;;;;;;;;103268;1313;22717;-32
2022/07/23 14:24:05;;;;;;;7.10;6.40;;;;;;;;;;103141;1323;22721;-30
2022/07/23 14:26:34;;;;;;;8.30;6.00;;;;;;;;;;103295;1313;22712;-31
2022/07/23 14:29:03;;;;;;;9.60;5.80;;;;;;;;;;103130;1323;22565;-26
2022/07/23 14:31:32;;;;;;;6.10;5.00;;;;;;;;;;103264;1313;22732;-30
2022/07/23 14:34:01;;;;;;;12.00;5.00;;;;;;;;;;103161;1313;22574;-30
2022/07/23 14:36:29;;;;;;;5.50;5.00;;;;;;;;;;103215;1314;22891;-23